Terminal Aerodrome Forecast
Issued by NWS

Home | Current Version | Previous Version | Text Only | Print | Product List | Glossary On
Versions: 1 2 3 4 5 6 7 8 9 10 11 12 13 14 15 16 17 18 19
000
FTUS41 KBGM 130500 CCA
TAFRME
TAF COR
KRME 130529Z 1306/1406 VRB02KT P6SM BKN200
     FM131200 14006KT P6SM BKN120
     FM131600 20008G20KT P6SM BKN050 PROB30 1317/1321 -TSRA OVC050CB
     FM132100 21012G20KT P6SM OVC035 PROB30 1321/1402 -TSRA OVC035CB
     FM140200 23004KT P6SM BKN040=

USA.gov is the U.S. government's official web portal to all federal, state and local government web resources and services.